Time;durP1;ratioP1;P1;durP2;ratioP2;P2;SDS_P1;SDS_P2;PMS_P1;PMS_P2;Temp;Humidity;BMP_temperature;BMP_pressure;BME280_temperature;BME280_humidity;BME280_pressure;Samples;Min_cycle;Max_cycle;Signal;HPM_P1;HPM_P2
2023/04/17 00:02:05;;;;;;;41.70;25.83;;;7.40;96.20;;;;;;5003759;28;20026;-75
2023/04/17 00:04:31;;;;;;;36.85;26.55;;;7.40;96.30;;;;;;5019633;28;20037;-74
2023/04/17 00:06:58;;;;;;;38.00;25.95;;;7.40;96.20;;;;;;5018461;28;20053;-74
2023/04/17 00:09:24;;;;;;;43.00;26.75;;;7.30;96.10;;;;;;5018101;28;20075;-74
2023/04/17 00:11:49;;;;;;;37.55;25.67;;;7.40;96.10;;;;;;5021246;28;20066;-73
2023/04/17 00:14:15;;;;;;;38.65;25.45;;;7.40;96.20;;;;;;5020907;28;20026;-73
2023/04/17 00:16:40;;;;;;;37.50;25.23;;;7.40;96.20;;;;;;5020369;28;20105;-73
2023/04/17 00:19:06;;;;;;;33.20;25.25;;;7.30;96.20;;;;;;5020531;28;20519;-75
2023/04/17 00:21:31;;;;;;;34.15;24.52;;;7.30;96.30;;;;;;5008147;28;20404;-74
2023/04/17 00:23:57;;;;;;;39.63;26.17;;;7.30;96.40;;;;;;5029961;28;20030;-75
2023/04/17 00:26:23;;;;;;;38.15;24.95;;;7.30;96.50;;;;;;5026049;28;20505;-75
2023/04/17 00:28:49;;;;;;;36.95;26.48;;;7.20;96.60;;;;;;5009774;28;20462;-75
2023/04/17 00:31:15;;;;;;;39.28;25.55;;;7.20;96.70;;;;;;5027926;28;20045;-74
2023/04/17 00:33:40;;;;;;;39.88;25.50;;;7.20;96.70;;;;;;5011931;28;20030;-75
2023/04/17 00:36:07;;;;;;;40.20;26.38;;;7.10;96.60;;;;;;5024708;28;20053;-75
2023/04/17 00:38:32;;;;;;;39.13;26.10;;;7.10;96.60;;;;;;5025543;28;20084;-75
2023/04/17 00:40:58;;;;;;;39.75;27.05;;;7.10;96.60;;;;;;5023832;28;20443;-75
2023/04/17 00:43:24;;;;;;;38.08;25.08;;;7.10;96.70;;;;;;5024985;28;20084;-75
2023/04/17 00:45:50;;;;;;;40.67;26.70;;;7.10;96.80;;;;;;5022247;28;20129;-75
2023/04/17 00:48:17;;;;;;;39.03;26.35;;;7.10;96.80;;;;;;5025577;28;20391;-75
2023/04/17 00:50:43;;;;;;;40.47;25.75;;;7.10;96.80;;;;;;5010907;28;20150;-75
2023/04/17 00:53:10;;;;;;;41.47;27.20;;;7.10;96.80;;;;;;5024502;28;20071;-75
2023/04/17 00:55:38;;;;;;;40.88;26.80;;;7.00;96.80;;;;;;5009379;28;20440;-75
2023/04/17 00:58:04;;;;;;;39.92;26.40;;;7.10;96.80;;;;;;5025085;28;20120;-76
2023/04/17 01:00:29;;;;;;;42.83;27.50;;;7.00;96.80;;;;;;5008929;28;20040;-76
2023/04/17 01:02:59;;;;;;;43.28;28.27;;;7.00;96.80;;;;;;5024247;28;20022;-75
2023/04/17 01:05:26;;;;;;;42.03;28.30;;;7.00;96.90;;;;;;5008356;28;20037;-75
2023/04/17 01:07:52;;;;;;;42.90;28.63;;;7.00;97.00;;;;;;5006596;28;20037;-75
2023/04/17 01:10:18;;;;;;;47.78;28.02;;;7.00;97.00;;;;;;5024796;28;20025;-75
2023/04/17 01:12:47;;;;;;;39.47;26.65;;;7.00;96.90;;;;;;5023892;28;20433;-76
2023/04/17 01:15:13;;;;;;;44.38;28.65;;;7.00;97.00;;;;;;5016691;28;20089;-76
2023/04/17 01:17:39;;;;;;;37.55;26.75;;;6.90;96.90;;;;;;5009766;28;20032;-75
2023/04/17 01:20:09;;;;;;;40.55;28.08;;;6.90;96.90;;;;;;5027576;28;20423;-76
2023/04/17 01:22:35;;;;;;;47.63;28.20;;;6.80;96.90;;;;;;5023716;28;20026;-76
2023/04/17 01:25:01;;;;;;;42.40;27.60;;;6.90;97.00;;;;;;5021937;28;20189;-76
2023/04/17 01:27:26;;;;;;;42.47;29.45;;;6.90;97.00;;;;;;5028127;28;20029;-76
2023/04/17 01:29:52;;;;;;;43.70;27.83;;;6.80;97.10;;;;;;5026593;28;20040;-76
2023/04/17 01:32:17;;;;;;;42.30;27.88;;;6.80;97.20;;;;;;5026098;28;20418;-76
2023/04/17 01:34:43;;;;;;;41.60;29.05;;;6.80;97.20;;;;;;5024862;28;21442;-75
2023/04/17 01:37:08;;;;;;;47.47;29.20;;;6.90;97.40;;;;;;5021202;28;20041;-76
2023/04/17 01:39:35;;;;;;;40.92;26.92;;;6.80;97.40;;;;;;5023968;28;20391;-81
2023/04/17 01:42:00;;;;;;;46.92;28.25;;;6.80;97.30;;;;;;5024675;28;20815;-75
2023/04/17 01:44:26;;;;;;;47.42;27.40;;;6.80;97.30;;;;;;5027347;28;20083;-76
2023/04/17 01:46:51;;;;;;;42.83;27.92;;;6.80;97.40;;;;;;5041742;28;20082;-76
2023/04/17 01:49:17;;;;;;;45.10;27.35;;;6.80;97.40;;;;;;5010324;28;20052;-75
2023/04/17 01:51:42;;;;;;;42.70;28.70;;;6.80;97.40;;;;;;5032426;28;20053;-75
2023/04/17 01:54:08;;;;;;;49.17;28.73;;;6.80;97.50;;;;;;5024047;28;20515;-76
2023/04/17 01:56:33;;;;;;;49.40;29.63;;;6.70;97.60;;;;;;5044024;28;20029;-76
2023/04/17 01:58:59;;;;;;;49.88;27.75;;;6.80;97.60;;;;;;5040446;28;20036;-76
2023/04/17 02:01:24;;;;;;;48.28;28.38;;;6.80;97.70;;;;;;5028899;28;20037;-76
2023/04/17 02:03:50;;;;;;;42.55;27.52;;;6.80;97.70;;;;;;5038299;28;20128;-76
2023/04/17 02:06:15;;;;;;;46.13;28.80;;;6.70;97.70;;;;;;5041209;28;20050;-76
2023/04/17 02:08:41;;;;;;;47.65;28.55;;;6.70;97.60;;;;;;5018438;28;20358;-76
2023/04/17 02:11:06;;;;;;;44.95;27.95;;;6.70;97.70;;;;;;5021433;28;20095;-76
2023/04/17 02:13:32;;;;;;;52.47;29.77;;;6.70;97.80;;;;;;5025497;28;20029;-75
2023/04/17 02:15:57;;;;;;;51.10;29.65;;;6.70;97.80;;;;;;5022877;28;20539;-75
2023/04/17 02:18:23;;;;;;;47.38;29.92;;;6.70;97.80;;;;;;5023665;28;20034;-77
2023/04/17 02:20:48;;;;;;;46.17;28.73;;;6.70;97.80;;;;;;5019414;28;20034;-77
2023/04/17 02:23:14;;;;;;;51.25;29.15;;;6.70;97.80;;;;;;5017008;28;20136;-77
2023/04/17 02:25:40;;;;;;;46.63;28.73;;;6.60;97.80;;;;;;5003653;28;20969;-74
2023/04/17 02:28:05;;;;;;;46.03;29.27;;;6.60;97.80;;;;;;5033350;28;20078;-76
2023/04/17 02:30:31;;;;;;;47.05;29.15;;;6.60;97.80;;;;;;5025196;28;20100;-76
2023/04/17 02:32:57;;;;;;;47.83;29.65;;;6.60;97.80;;;;;;5026945;28;20035;-76
2023/04/17 02:35:25;;;;;;;49.47;30.33;;;6.60;97.90;;;;;;5022821;28;20094;-76
2023/04/17 02:37:51;;;;;;;46.28;29.38;;;6.60;97.90;;;;;;5023576;28;20032;-76
2023/04/17 02:40:16;;;;;;;49.40;31.13;;;6.60;97.90;;;;;;5023645;28;20037;-75
2023/04/17 02:42:42;;;;;;;48.85;29.88;;;6.50;98.00;;;;;;5023889;28;20028;-76
2023/04/17 02:45:08;;;;;;;45.55;29.52;;;6.50;97.90;;;;;;5031325;28;20362;-76
2023/04/17 02:47:33;;;;;;;50.67;30.88;;;6.60;98.00;;;;;;5025293;28;20443;-75
2023/04/17 02:50:02;;;;;;;53.65;31.13;;;6.60;98.10;;;;;;5015516;28;20040;-75
2023/04/17 02:52:32;;;;;;;50.55;31.05;;;6.50;98.00;;;;;;5018589;28;20048;-76
2023/04/17 02:54:57;;;;;;;54.22;31.00;;;6.60;98.10;;;;;;5020271;28;20021;-76
2023/04/17 02:57:24;;;;;;;52.28;32.45;;;6.50;98.10;;;;;;5020482;28;20039;-75
2023/04/17 02:59:50;;;;;;;52.85;32.40;;;6.60;98.10;;;;;;5021692;28;21226;-75
2023/04/17 03:02:20;;;;;;;50.72;31.63;;;6.50;98.10;;;;;;5015794;28;20033;-75
2023/04/17 03:04:50;;;;;;;59.87;32.17;;;6.50;98.10;;;;;;5023900;28;20021;-75
2023/04/17 03:07:17;;;;;;;52.63;31.23;;;6.50;98.10;;;;;;5027302;28;20025;-77
2023/04/17 03:09:46;;;;;;;58.45;33.63;;;6.50;98.10;;;;;;5025695;28;20441;-77
2023/04/17 03:12:13;;;;;;;59.05;32.70;;;6.50;98.20;;;;;;5027152;28;20030;-76
2023/04/17 03:14:39;;;;;;;57.95;32.90;;;6.50;98.20;;;;;;5005285;28;20144;-75
2023/04/17 03:17:04;;;;;;;60.45;33.75;;;6.50;98.20;;;;;;5021025;28;20029;-76
2023/04/17 03:19:30;;;;;;;54.97;32.85;;;6.40;98.10;;;;;;5027192;28;20121;-76
2023/04/17 03:21:55;;;;;;;57.05;33.65;;;6.40;98.20;;;;;;5024401;28;20041;-76
2023/04/17 03:24:21;;;;;;;58.53;33.13;;;6.50;98.30;;;;;;5023466;28;20025;-76
2023/04/17 03:26:46;;;;;;;53.13;32.88;;;6.50;98.20;;;;;;5027080;28;20401;-76
2023/04/17 03:29:13;;;;;;;63.85;35.38;;;6.40;98.30;;;;;;5009819;28;20053;-76
2023/04/17 03:31:38;;;;;;;62.75;34.40;;;6.40;98.30;;;;;;5023052;28;20042;-76
2023/04/17 03:34:04;;;;;;;60.55;34.95;;;6.40;98.30;;;;;;5020860;28;20430;-76
2023/04/17 03:36:29;;;;;;;62.28;35.50;;;6.40;98.40;;;;;;5019385;28;20045;-76
2023/04/17 03:38:56;;;;;;;62.92;34.67;;;6.40;98.30;;;;;;5017329;28;20116;-77
2023/04/17 03:41:22;;;;;;;61.90;33.40;;;6.40;98.30;;;;;;5024101;28;20048;-77
2023/04/17 03:43:47;;;;;;;62.85;35.53;;;6.40;98.40;;;;;;5025997;28;20410;-77
2023/04/17 03:46:13;;;;;;;62.95;34.53;;;6.30;98.40;;;;;;5021187;28;20025;-77
2023/04/17 03:48:38;;;;;;;60.00;34.78;;;6.30;98.40;;;;;;5009010;28;20182;-76
2023/04/17 03:51:04;;;;;;;60.65;34.35;;;6.30;98.40;;;;;;5017889;28;20045;-76
2023/04/17 03:53:29;;;;;;;62.30;34.40;;;6.30;98.50;;;;;;5023737;28;20037;-76
2023/04/17 03:55:55;;;;;;;62.70;34.28;;;6.30;98.40;;;;;;5022043;28;20120;-77
2023/04/17 03:58:21;;;;;;;66.10;34.10;;;6.30;98.50;;;;;;5006641;28;22016;-78
2023/04/17 04:00:47;;;;;;;63.17;34.33;;;6.30;98.50;;;;;;5024222;28;20108;-77
2023/04/17 04:03:13;;;;;;;61.40;34.08;;;6.20;98.50;;;;;;5021677;28;20311;-78
2023/04/17 04:05:38;;;;;;;63.72;34.58;;;6.20;98.50;;;;;;5020878;28;20097;-78
2023/04/17 04:08:04;;;;;;;63.25;34.88;;;6.20;98.50;;;;;;5014500;28;20368;-78
2023/04/17 04:10:31;;;;;;;61.90;35.80;;;6.20;98.50;;;;;;5024640;28;20376;-77
2023/04/17 04:12:57;;;;;;;63.28;35.30;;;6.10;98.50;;;;;;5007032;28;20048;-78
2023/04/17 04:15:22;;;;;;;60.80;34.97;;;6.20;98.60;;;;;;5003274;28;20057;-77
2023/04/17 04:17:48;;;;;;;72.28;35.90;;;6.10;98.60;;;;;;5026064;28;20116;-77
2023/04/17 04:20:13;;;;;;;63.30;35.90;;;6.10;98.60;;;;;;5025432;28;20033;-77
2023/04/17 04:22:40;;;;;;;61.30;35.63;;;6.10;98.60;;;;;;5018608;28;20078;-76
2023/04/17 04:25:06;;;;;;;62.88;36.28;;;6.10;98.60;;;;;;5018448;28;20093;-75
2023/04/17 04:27:32;;;;;;;61.85;36.30;;;6.10;98.60;;;;;;5028892;28;20456;-75
2023/04/17 04:30:00;;;;;;;66.50;36.67;;;6.10;98.60;;;;;;5026793;22;20400;-87
2023/04/17 04:32:26;;;;;;;64.53;36.08;;;6.10;98.60;;;;;;5024031;28;20030;-91
2023/04/17 04:34:55;;;;;;;69.63;38.03;;;6.10;98.60;;;;;;5022972;28;20022;-90
2023/04/17 04:37:20;;;;;;;65.50;35.90;;;6.10;98.60;;;;;;5023515;28;20137;-90
2023/04/17 04:39:52;;;;;;;71.38;36.63;;;6.10;98.60;;;;;;5021671;28;20188;-85
2023/04/17 04:42:20;;;;;;;70.05;36.83;;;6.10;98.60;;;;;;5007047;28;20042;-84
2023/04/17 04:44:46;;;;;;;68.15;36.88;;;6.20;98.60;;;;;;5021791;28;20087;-84
2023/04/17 04:47:12;;;;;;;71.55;37.05;;;6.20;98.60;;;;;;5017646;28;20109;-84
2023/04/17 04:49:37;;;;;;;72.75;38.45;;;6.20;98.60;;;;;;5006373;28;20038;-85
2023/04/17 04:52:03;;;;;;;70.00;36.42;;;6.20;98.60;;;;;;5005262;28;20032;-84
2023/04/17 04:54:28;;;;;;;72.40;36.42;;;6.20;98.60;;;;;;5001167;28;20030;-84
2023/04/17 04:56:54;;;;;;;72.03;37.72;;;6.20;98.60;;;;;;4993832;28;20042;-86
2023/04/17 04:59:20;;;;;;;70.13;38.13;;;6.20;98.60;;;;;;5002812;28;20044;-84
2023/04/17 05:01:45;;;;;;;70.97;36.30;;;6.20;98.50;;;;;;5008539;28;20380;-85
2023/04/17 05:04:11;;;;;;;70.95;36.95;;;6.30;98.60;;;;;;5007510;28;20040;-86
2023/04/17 05:06:36;;;;;;;67.95;38.10;;;6.30;98.60;;;;;;5009536;28;20457;-85
2023/04/17 05:09:02;;;;;;;79.80;37.75;;;6.40;98.60;;;;;;5002967;28;20461;-84
2023/04/17 05:11:27;;;;;;;70.00;39.35;;;6.40;98.60;;;;;;5021180;22;20050;-78
2023/04/17 05:13:52;;;;;;;79.10;40.17;;;6.50;98.60;;;;;;5023944;28;20021;-78
2023/04/17 05:16:18;;;;;;;71.72;39.45;;;6.60;98.70;;;;;;5001519;28;20145;-72
2023/04/17 05:18:46;;;;;;;77.07;39.80;;;6.60;98.70;;;;;;5001240;28;20041;-72
2023/04/17 05:21:12;;;;;;;73.38;40.40;;;6.60;98.70;;;;;;5000464;28;20022;-73
2023/04/17 05:23:37;;;;;;;76.10;40.08;;;6.70;98.70;;;;;;5001965;28;20103;-77
2023/04/17 05:26:04;;;;;;;72.82;40.22;;;6.80;98.70;;;;;;5002105;28;20037;-77
2023/04/17 05:28:30;;;;;;;71.95;40.05;;;6.80;98.80;;;;;;5018840;28;20355;-76
2023/04/17 05:30:56;;;;;;;77.60;40.90;;;6.80;98.70;;;;;;5003195;28;20026;-76
2023/04/17 05:33:22;;;;;;;70.70;39.38;;;7.00;98.70;;;;;;5006876;28;20049;-76
2023/04/17 05:35:47;;;;;;;72.80;40.28;;;7.00;98.70;;;;;;5004997;28;20026;-76
2023/04/17 05:38:12;;;;;;;71.72;39.97;;;7.00;98.60;;;;;;5002768;28;20124;-77
2023/04/17 05:40:38;;;;;;;74.63;39.63;;;7.10;98.60;;;;;;5000453;28;20039;-76
2023/04/17 05:43:08;;;;;;;76.03;41.70;;;7.10;98.50;;;;;;5000735;28;20022;-77
2023/04/17 05:45:34;;;;;;;69.20;39.20;;;7.20;98.50;;;;;;4998763;28;20023;-77
2023/04/17 05:47:59;;;;;;;68.50;39.22;;;7.30;98.40;;;;;;5003296;28;20072;-77
2023/04/17 05:50:25;;;;;;;65.07;37.33;;;7.30;98.40;;;;;;5005334;28;20049;-77
2023/04/17 05:52:50;;;;;;;62.00;38.92;;;7.40;98.40;;;;;;5006400;28;20121;-77
2023/04/17 05:55:18;;;;;;;58.70;36.40;;;7.60;98.30;;;;;;5001586;28;20023;-77
2023/04/17 05:57:44;;;;;;;63.88;38.22;;;7.60;98.30;;;;;;5007115;28;20034;-77
2023/04/17 06:00:11;;;;;;;57.97;35.28;;;7.80;98.20;;;;;;5110219;22;20031;-74
2023/04/17 06:02:39;;;;;;;57.90;36.92;;;7.80;98.00;;;;;;5001961;28;20096;-77
2023/04/17 06:05:05;;;;;;;53.58;34.75;;;7.90;97.90;;;;;;5014096;28;20022;-77
2023/04/17 06:07:32;;;;;;;50.15;34.03;;;8.00;97.70;;;;;;5010738;28;20091;-77
2023/04/17 06:09:58;;;;;;;56.25;34.38;;;8.00;97.50;;;;;;5001743;28;20050;-77
2023/04/17 06:12:23;;;;;;;50.47;33.28;;;8.00;97.30;;;;;;4996253;28;20022;-78
2023/04/17 06:14:49;;;;;;;50.53;32.33;;;8.10;97.20;;;;;;5001142;28;20076;-78
2023/04/17 06:17:14;;;;;;;46.72;32.30;;;8.20;97.20;;;;;;4994001;28;20426;-77
2023/04/17 06:19:40;;;;;;;51.00;32.10;;;8.20;96.80;;;;;;5003472;28;20060;-77
2023/04/17 06:22:05;;;;;;;47.90;32.38;;;8.30;96.80;;;;;;5001362;28;20195;-77
2023/04/17 06:24:31;;;;;;;51.47;31.45;;;8.40;96.60;;;;;;4997892;28;20085;-77
2023/04/17 06:26:56;;;;;;;42.35;30.02;;;8.50;96.50;;;;;;5001553;28;20037;-77
2023/04/17 06:29:22;;;;;;;48.05;30.50;;;8.50;96.30;;;;;;5000643;28;20030;-78
2023/04/17 06:31:48;;;;;;;43.92;29.40;;;8.70;96.10;;;;;;4999198;28;20446;-78
2023/04/17 06:34:14;;;;;;;42.58;30.02;;;8.70;95.80;;;;;;4997824;28;20025;-78
2023/04/17 06:36:40;;;;;;;47.40;28.98;;;8.80;95.30;;;;;;5003883;28;20052;-76
2023/04/17 06:39:05;;;;;;;43.47;28.08;;;8.90;95.20;;;;;;5007516;28;20042;-76
2023/04/17 06:41:31;;;;;;;41.72;28.13;;;9.00;95.00;;;;;;5003574;28;20038;-76
2023/04/17 06:43:56;;;;;;;40.60;26.88;;;9.10;94.70;;;;;;5001240;28;20383;-77
2023/04/17 06:46:22;;;;;;;39.95;26.38;;;9.20;94.40;;;;;;5001504;28;20049;-77
2023/04/17 06:48:51;;;;;;;36.53;25.88;;;9.30;93.90;;;;;;5000635;28;20026;-77
2023/04/17 06:51:19;;;;;;;38.28;24.98;;;9.40;93.60;;;;;;4999063;28;20113;-76
2023/04/17 06:53:45;;;;;;;33.33;23.75;;;9.40;93.20;;;;;;5002228;28;20021;-76
2023/04/17 06:56:11;;;;;;;34.90;24.10;;;9.50;92.70;;;;;;5005549;28;20038;-76
2023/04/17 06:58:42;;;;;;;33.13;23.05;;;9.60;92.80;;;;;;4999294;28;20056;-76
2023/04/17 07:01:11;;;;;;;35.13;24.48;;;9.70;92.30;;;;;;5000638;28;20917;-75
2023/04/17 07:03:41;;;;;;;34.35;22.80;;;9.80;92.00;;;;;;5002213;28;20049;-77
2023/04/17 07:06:07;;;;;;;34.58;22.55;;;10.00;92.20;;;;;;5002610;28;20117;-77
2023/04/17 07:08:33;;;;;;;33.50;22.00;;;10.10;91.40;;;;;;5000555;28;20136;-75
2023/04/17 07:10:59;;;;;;;28.58;20.02;;;10.10;89.70;;;;;;4993900;28;20042;-77
2023/04/17 07:13:24;;;;;;;29.27;20.45;;;10.40;90.60;;;;;;4992302;28;20067;-78
2023/04/17 07:15:54;;;;;;;31.30;20.73;;;10.60;89.50;;;;;;4989769;28;20033;-77
2023/04/17 07:18:20;;;;;;;28.83;19.33;;;10.70;89.10;;;;;;4999973;28;20060;-78
2023/04/17 07:20:46;;;;;;;25.95;18.20;;;10.80;88.60;;;;;;5001755;28;20048;-78
2023/04/17 07:23:12;;;;;;;24.90;18.75;;;11.00;87.70;;;;;;4995777;28;21039;-77
2023/04/17 07:25:37;;;;;;;28.90;18.38;;;11.20;86.90;;;;;;4999225;28;20081;-79
2023/04/17 07:28:03;;;;;;;25.33;18.30;;;11.60;85.70;;;;;;5003860;28;20028;-81
2023/04/17 07:30:28;;;;;;;27.25;17.85;;;11.80;83.70;;;;;;5005428;28;20037;-79
2023/04/17 07:32:53;;;;;;;23.92;17.42;;;12.10;84.80;;;;;;5007348;28;20088;-79
2023/04/17 07:35:19;;;;;;;24.08;15.43;;;12.60;84.00;;;;;;5006996;28;21186;-79
2023/04/17 07:37:45;;;;;;;22.95;14.05;;;12.70;81.80;;;;;;4999448;28;20030;-79
2023/04/17 07:40:10;;;;;;;18.08;11.43;;;12.50;77.40;;;;;;5013341;28;20033;-79
2023/04/17 07:42:36;;;;;;;16.65;10.93;;;12.70;78.20;;;;;;5003589;28;20052;-78
2023/04/17 07:45:03;;;;;;;15.80;9.80;;;12.80;72.30;;;;;;5012742;28;20172;-79
2023/04/17 07:47:29;;;;;;;15.98;9.75;;;12.20;70.40;;;;;;4998302;28;20078;-78
2023/04/17 07:49:55;;;;;;;16.67;10.15;;;12.50;73.80;;;;;;5001131;28;20041;-79
2023/04/17 07:52:20;;;;;;;16.65;9.88;;;12.50;72.60;;;;;;5003771;28;20041;-79
2023/04/17 07:54:46;;;;;;;16.17;8.90;;;12.90;73.70;;;;;;4999570;28;20029;-79
2023/04/17 07:57:13;;;;;;;16.10;8.95;;;12.80;71.80;;;;;;4996289;28;20374;-79
2023/04/17 07:59:39;;;;;;;14.55;8.77;;;12.50;69.20;;;;;;5000744;28;20026;-79
2023/04/17 08:02:05;;;;;;;14.98;8.77;;;12.40;69.80;;;;;;4994729;28;20052;-79
2023/04/17 08:04:31;;;;;;;12.93;8.10;;;13.00;72.70;;;;;;4995984;28;20061;-78
2023/04/17 08:06:57;;;;;;;17.20;8.50;;;12.90;67.30;;;;;;4997512;28;20040;-75
2023/04/17 08:09:23;;;;;;;15.50;7.95;;;13.10;69.80;;;;;;5001882;28;20108;-76
2023/04/17 08:11:48;;;;;;;12.38;7.57;;;13.30;66.70;;;;;;5004164;28;20041;-74
2023/04/17 08:14:15;;;;;;;9.10;6.40;;;13.40;67.40;;;;;;5001023;28;20038;-78
2023/04/17 08:16:40;;;;;;;11.93;7.18;;;13.90;65.80;;;;;;5000136;28;20371;-81
2023/04/17 08:19:06;;;;;;;11.57;6.53;;;14.10;63.30;;;;;;4998509;28;20062;-81
2023/04/17 08:21:31;;;;;;;13.25;8.38;;;14.10;62.40;;;;;;4994402;28;20042;-82
2023/04/17 08:23:57;;;;;;;13.32;8.27;;;13.70;62.40;;;;;;5000657;28;20542;-82
2023/04/17 08:26:22;;;;;;;14.00;8.45;;;14.10;64.60;;;;;;4995718;28;20100;-80
2023/04/17 08:28:48;;;;;;;16.42;8.43;;;14.20;66.10;;;;;;5001696;28;20034;-80
2023/04/17 08:31:13;;;;;;;12.70;8.75;;;14.30;64.10;;;;;;5000298;28;20087;-80
2023/04/17 08:33:39;;;;;;;12.27;7.57;;;14.30;62.60;;;;;;4999527;28;20133;-81
2023/04/17 08:36:08;;;;;;;15.00;8.00;;;14.20;63.50;;;;;;5001027;28;20049;-81
2023/04/17 08:38:34;;;;;;;12.48;8.45;;;14.50;62.30;;;;;;4999540;28;20112;-81
2023/04/17 08:41:04;;;;;;;14.02;7.75;;;14.60;62.20;;;;;;5004621;28;20497;-81
2023/04/17 08:43:33;;;;;;;11.90;8.05;;;14.40;63.40;;;;;;5004380;28;20042;-81
2023/04/17 08:45:59;;;;;;;13.85;8.40;;;14.40;61.10;;;;;;5001248;28;20037;-79
2023/04/17 08:48:24;;;;;;;14.02;8.23;;;14.20;60.30;;;;;;4998599;28;20536;-81
2023/04/17 08:50:52;;;;;;;11.07;7.18;;;14.40;60.50;;;;;;5000816;28;20037;-82
2023/04/17 08:53:18;;;;;;;13.95;7.68;;;14.40;61.70;;;;;;5001867;28;20481;-80
2023/04/17 08:55:45;;;;;;;15.65;9.02;;;15.00;62.80;;;;;;4997775;28;20320;-81
2023/04/17 08:58:11;;;;;;;14.60;8.80;;;14.80;60.70;;;;;;5000512;28;20106;-81
2023/04/17 09:00:39;;;;;;;13.15;9.00;;;14.80;63.30;;;;;;5010907;28;20114;-81
2023/04/17 09:03:07;;;;;;;14.40;9.68;;;14.70;61.60;;;;;;5001370;28;20106;-81
2023/04/17 09:05:35;;;;;;;16.13;9.82;;;14.80;61.90;;;;;;5002911;28;20124;-81
2023/04/17 09:08:08;;;;;;;16.73;9.80;;;14.70;59.10;;;;;;5009649;28;20072;-82
2023/04/17 09:10:38;;;;;;;16.10;9.93;;;14.80;61.50;;;;;;5006663;28;20057;-81
2023/04/17 09:13:04;;;;;;;16.13;10.00;;;14.60;61.20;;;;;;5004015;28;20021;-82
2023/04/17 09:15:31;;;;;;;16.90;10.25;;;14.70;62.70;;;;;;5001536;28;20041;-79
2023/04/17 09:17:56;;;;;;;15.73;10.77;;;15.00;64.00;;;;;;5001835;28;20056;-78
2023/04/17 09:20:22;;;;;;;15.45;10.63;;;15.60;63.40;;;;;;5004906;28;20043;-82
2023/04/17 09:22:47;;;;;;;18.42;10.68;;;15.70;59.80;;;;;;4989784;28;20048;-81
2023/04/17 09:25:17;;;;;;;11.55;9.05;;;15.80;61.80;;;;;;5002016;28;20060;-82
2023/04/17 09:27:43;;;;;;;14.23;9.45;;;16.00;60.40;;;;;;4995500;28;20049;-81
2023/04/17 09:30:09;;;;;;;14.52;9.82;;;16.20;59.60;;;;;;5003552;28;20078;-81
2023/04/17 09:32:34;;;;;;;14.85;9.80;;;16.00;59.20;;;;;;5003332;28;20556;-81
2023/04/17 09:35:04;;;;;;;15.00;9.88;;;16.30;58.10;;;;;;5003651;28;20415;-81
2023/04/17 09:37:48;;;;;;;11.95;8.60;;;16.20;57.20;;;;;;5003185;28;20049;-80
2023/04/17 09:40:14;;;;;;;14.25;10.30;;;15.80;56.90;;;;;;5002185;28;20045;-81
2023/04/17 09:43:04;;;;;;;14.43;9.50;;;15.70;59.20;;;;;;4995799;28;20211;-81
2023/04/17 09:45:34;;;;;;;15.18;9.52;;;16.50;57.10;;;;;;4997805;28;20101;-81
2023/04/17 09:48:18;;;;;;;13.40;9.13;;;16.00;56.00;;;;;;5006770;28;20129;-79
2023/04/17 09:50:45;;;;;;;13.52;9.40;;;16.30;58.20;;;;;;5006599;28;20033;-81
2023/04/17 09:53:11;;;;;;;16.67;10.30;;;16.00;56.30;;;;;;5001175;28;20431;-80
2023/04/17 09:55:40;;;;;;;15.52;10.07;;;16.00;58.20;;;;;;5001094;28;20014;-79
2023/04/17 09:58:06;;;;;;;14.50;9.00;;;16.50;59.70;;;;;;5006747;28;20087;-81
2023/04/17 10:00:32;;;;;;;12.77;9.20;;;16.60;58.90;;;;;;4998765;28;20097;-81
2023/04/17 10:02:58;;;;;;;15.73;9.20;;;17.00;58.70;;;;;;4996983;28;20097;-81
2023/04/17 10:05:29;;;;;;;12.00;8.65;;;17.00;55.30;;;;;;5002780;28;20096;-81
2023/04/17 10:07:55;;;;;;;12.52;9.18;;;16.70;55.50;;;;;;4998357;28;20060;-81
2023/04/17 10:10:29;;;;;;;14.57;10.05;;;16.70;56.40;;;;;;5001509;28;20048;-81
2023/04/17 10:12:57;;;;;;;15.93;10.35;;;16.30;58.70;;;;;;4994595;28;20030;-81
2023/04/17 10:15:23;;;;;;;14.02;9.70;;;16.40;57.50;;;;;;5001295;28;20429;-81
2023/04/17 10:17:49;;;;;;;15.27;10.73;;;16.30;59.80;;;;;;4992885;28;20042;-81
2023/04/17 10:20:21;;;;;;;15.32;11.57;;;17.20;59.70;;;;;;4988926;28;20057;-78
2023/04/17 10:22:55;;;;;;;16.90;10.60;;;17.30;57.60;;;;;;4994134;28;20038;-80
2023/04/17 10:25:25;;;;;;;16.50;9.77;;;18.00;56.00;;;;;;5000315;28;20037;-82
2023/04/17 10:27:59;;;;;;;16.27;10.55;;;18.50;55.10;;;;;;5002045;28;20136;-82
2023/04/17 10:30:52;;;;;;;18.48;10.90;;;18.20;54.00;;;;;;4993666;28;20040;-80
2023/04/17 10:33:20;;;;;;;16.77;10.32;;;17.10;58.00;;;;;;5000705;28;20037;-81
2023/04/17 10:35:46;;;;;;;12.52;10.10;;;16.90;59.80;;;;;;5003606;28;20042;-81
2023/04/17 10:38:12;;;;;;;17.73;10.05;;;17.10;59.40;;;;;;5002333;28;20415;-82
2023/04/17 10:40:38;;;;;;;16.67;10.60;;;17.30;56.60;;;;;;4994531;28;20083;-83
2023/04/17 10:43:27;;;;;;;15.63;9.60;;;17.20;58.20;;;;;;5002444;28;20316;-82
2023/04/17 10:46:12;;;;;;;13.85;9.02;;;17.80;55.40;;;;;;5002330;28;20049;-83
2023/04/17 10:48:40;;;;;;;12.68;9.43;;;17.50;53.30;;;;;;5005242;28;20101;-82
2023/04/17 10:51:22;;;;;;;14.88;8.68;;;17.70;55.40;;;;;;4998356;28;20037;-82
2023/04/17 10:53:58;;;;;;;16.00;9.75;;;18.30;52.10;;;;;;4999023;28;20433;-82
2023/04/17 10:56:25;;;;;;;10.27;7.70;;;18.50;50.50;;;;;;5003164;28;20101;-82
2023/04/17 10:59:04;;;;;;;13.05;7.95;;;18.70;48.80;;;;;;5006247;28;20441;-82
2023/04/17 11:01:35;;;;;;;9.70;7.18;;;18.70;49.80;;;;;;4999055;28;20058;-82
2023/04/17 11:04:01;;;;;;;12.10;7.85;;;18.80;50.50;;;;;;4998113;28;20048;-81
2023/04/17 11:06:31;;;;;;;10.40;7.72;;;18.00;51.80;;;;;;4996661;28;20483;-81
2023/04/17 11:08:58;;;;;;;11.50;6.90;;;17.70;50.70;;;;;;4998237;28;20041;-81
2023/04/17 11:11:24;;;;;;;13.52;7.07;;;17.30;53.90;;;;;;5001281;28;20451;-81
2023/04/17 11:13:50;;;;;;;10.55;6.25;;;17.80;51.70;;;;;;5000053;28;20320;-82
2023/04/17 11:16:16;;;;;;;13.65;5.90;;;18.60;51.10;;;;;;5007961;28;20157;-81
2023/04/17 11:18:44;;;;;;;10.00;5.95;;;18.70;50.60;;;;;;5006284;28;20037;-81
2023/04/17 11:21:14;;;;;;;11.70;5.90;;;19.10;48.20;;;;;;5002881;28;20413;-79
2023/04/17 11:23:48;;;;;;;10.68;6.03;;;18.90;46.00;;;;;;4998312;28;20045;-80
2023/04/17 11:26:14;;;;;;;7.30;4.72;;;18.70;48.40;;;;;;4992667;28;20325;-80
2023/04/17 11:28:39;;;;;;;8.65;4.80;;;18.80;47.10;;;;;;5003617;28;20131;-80
2023/04/17 11:31:05;;;;;;;11.18;5.22;;;19.10;46.00;;;;;;4996422;28;20132;-80
2023/04/17 11:33:37;;;;;;;8.73;4.60;;;19.00;46.40;;;;;;5001671;28;20037;-81
2023/04/17 11:36:06;;;;;;;9.77;4.75;;;19.00;44.20;;;;;;5004320;28;20030;-81
2023/04/17 11:38:32;;;;;;;9.73;4.72;;;19.60;45.70;;;;;;4996190;28;20109;-77
2023/04/17 11:41:00;;;;;;;13.07;4.90;;;19.80;45.00;;;;;;5001942;28;20087;-79
2023/04/17 11:43:27;;;;;;;9.30;5.25;;;20.10;45.80;;;;;;5003015;28;20125;-79
2023/04/17 11:45:55;;;;;;;8.95;5.93;;;20.40;44.90;;;;;;4998169;28;20132;-79
2023/04/17 11:48:28;;;;;;;11.35;5.60;;;20.60;43.90;;;;;;5004655;28;20129;-79
2023/04/17 11:50:56;;;;;;;10.15;6.13;;;20.40;45.30;;;;;;4997675;28;20379;-79
2023/04/17 11:53:22;;;;;;;9.30;5.85;;;20.30;43.20;;;;;;4995916;28;20343;-78
2023/04/17 11:55:48;;;;;;;9.98;5.75;;;19.70;45.70;;;;;;4994917;28;20155;-78
2023/04/17 11:58:14;;;;;;;9.35;5.63;;;20.00;45.00;;;;;;5002283;28;20161;-77
2023/04/17 12:00:40;;;;;;;11.05;5.78;;;19.50;44.00;;;;;;4999465;28;21409;-78
2023/04/17 12:03:32;;;;;;;14.15;5.57;;;19.40;45.00;;;;;;4994611;28;20041;-78
2023/04/17 12:06:03;;;;;;;13.35;5.60;;;18.50;46.30;;;;;;4990604;28;20026;-78
2023/04/17 12:08:29;;;;;;;10.13;5.15;;;17.90;48.40;;;;;;4999494;28;20021;-78
2023/04/17 12:10:56;;;;;;;7.65;5.30;;;18.90;47.20;;;;;;5010910;28;20089;-78
2023/04/17 12:13:22;;;;;;;8.88;5.70;;;19.40;45.60;;;;;;5000579;28;20428;-78
2023/04/17 12:15:48;;;;;;;7.45;4.93;;;20.30;43.60;;;;;;5003651;28;20030;-77
2023/04/17 12:18:13;;;;;;;10.27;5.75;;;20.60;41.20;;;;;;4997892;28;20088;-79
2023/04/17 12:20:39;;;;;;;8.52;5.53;;;21.00;44.00;;;;;;4996343;28;20038;-79
2023/04/17 12:23:05;;;;;;;8.80;5.53;;;21.00;41.60;;;;;;5000827;28;20084;-78
2023/04/17 12:25:31;;;;;;;9.32;4.80;;;20.50;42.60;;;;;;4994544;28;20026;-77
2023/04/17 12:27:58;;;;;;;13.90;6.03;;;20.10;43.60;;;;;;4999582;28;20092;-78
2023/04/17 12:30:27;;;;;;;10.50;6.25;;;19.40;44.70;;;;;;4995393;28;20030;-77
2023/04/17 12:32:54;;;;;;;9.43;6.43;;;18.50;47.10;;;;;;5003511;28;20107;-77
2023/04/17 12:35:20;;;;;;;10.85;6.50;;;18.70;47.90;;;;;;4998993;28;20034;-76